Warsaw, IN

7:28 PM EDT on July 02, 2015 (GMT -0400)
15 South | | Change Station
CLOSE
Current Station
Personal Weather Station
Location: Warsaw, IN
Elevation: 840 ft
Nearby Weather Stations

Elev 840 ft 41.22 °N, 85.87 °W | Updated 12 minutes ago

Clear
Clear
74.1 °F
Feels Like 77 °F
N
0.0
Wind Variable Wind from East
Gusts 3.0 mph

Today
High -- | Low -- °F
--% Chance of Precip.
Yesterday
High -- | Low -- °F
Precip. -- in
6:14 AM 9:20 PM
Full, 99% visible
Pressure 29.94 in
Visibility 10.0 miles
Clouds Few 4700 ft
Heat Index 77 °F
Dew Point 59 °F
Humidity 60%
Rainfall 0.00 in
Snow Depth Not available.
UV 2 out of 12
Pollen 3.40 out of 12
Air Quality Not available.
Flu Activity Not available.
METAR KGSH 022253Z AUTO 05006KT 10SM FEW047 23/13 A2995 RMK AO2 SLP138 T02280128

More Conditions Fewer Conditions

Pressure 29.94 in
Visibility 10.0 miles
Clouds Few 4700 ft
Heat Index 77 °F
Dew Point 59 °F
Humidity 60%
Rainfall 0.00 in
Snow Depth Not available.
UV 2 out of 12
Pollen 3.40 out of 12
Air Quality Not available.
Flu Activity Not available.
METAR KGSH 022253Z AUTO 05006KT 10SM FEW047 23/13 A2995 RMK AO2 SLP138 T02280128

More Conditions Fewer Conditions

10-Day Weather Forecast

×

Almanac

Astronomy

Jul. 02, 2015 Rise Set
Actual Time
Civil Twilight
Nautical Twilight
Astronomical Twilight
Moon
Length of Visible Light
Length of Day
Tomorrow will be .
, % of the Moon is Illuminated

Today's Extremes

State Highs State Lows

Community

WunderPhotos

Upload Photos

1,834,569 photos uploaded!

WunderBlogs® & News

Nearby

Air Quality

  Air Quality AQ Index Pollutant
Not available.

Snow Depth

Station Depth Elevation

Earthquake Activity

City Distance Mag. Time & Date
Minimum magnitude displayed is 2.5.

Coastal Water Temperatures

Place Temperature

Stations

Nearby Weather Stations

Station Location Temp. Windchill Dew Point Humidity Wind Precip. Elev Updated Type